createdAt,value
2023-06-29T00:02:30.701Z,100740.25
2023-06-29T00:05:07.356Z,100756.81
2023-06-29T00:07:42.697Z,100752.41
2023-06-29T00:10:11.956Z,100754.06
2023-06-29T00:12:43.522Z,100762.63
2023-06-29T00:15:11.065Z,100730.38
2023-06-29T00:17:39.826Z,100741.13
2023-06-29T00:20:14.108Z,100740.31
2023-06-29T00:22:51.643Z,100748.06
2023-06-29T00:25:19.474Z,100744.78
2023-06-29T00:27:47.491Z,100739.28
2023-06-29T00:30:16.256Z,100746.72
2023-06-29T00:32:46.349Z,100728.28
2023-06-29T00:37:57.379Z,100746.22
2023-06-29T00:40:27.696Z,100745.94
2023-06-29T00:45:36.835Z,100740.47
2023-06-29T00:48:06.700Z,100750.41
2023-06-29T00:50:39.007Z,100749.56
2023-06-29T00:53:18.829Z,100737.69
2023-06-29T00:55:49.333Z,100735.47
2023-06-29T00:58:17.347Z,100740.19
2023-06-29T01:00:48.723Z,100727.19
2023-06-29T01:03:16.002Z,100729.97
2023-06-29T01:05:49.721Z,100729.13
2023-06-29T01:08:36.063Z,100733.22
2023-06-29T01:11:05.251Z,100729.88
2023-06-29T01:13:37.731Z,100724.38
2023-06-29T01:16:07.647Z,100718.84
2023-06-29T01:18:44.464Z,100723.25
2023-06-29T01:21:22.104Z,100711.09
2023-06-29T01:23:54.304Z,100708.28
2023-06-29T01:26:28.382Z,100711.34
2023-06-29T01:29:03.137Z,100713.22
2023-06-29T01:31:39.747Z,100718.75
2023-06-29T01:34:20.658Z,100706.13
2023-06-29T01:36:58.165Z,100708.84
2023-06-29T01:39:33.759Z,100715.22
2023-06-29T01:42:05.974Z,100714.38
2023-06-29T01:44:37.421Z,100706.97
2023-06-29T01:47:08.222Z,100708.34
2023-06-29T01:49:36.292Z,100701.47
2023-06-29T01:52:26.641Z,100697.91
2023-06-29T01:54:54.574Z,100693.50
2023-06-29T01:57:23.735Z,100694.38
2023-06-29T01:59:56.233Z,100691.63
2023-06-29T02:02:23.261Z,100713.13
2023-06-29T02:04:50.059Z,100706.75
2023-06-29T02:07:25.414Z,100698.50
2023-06-29T02:09:53.482Z,100698.22
2023-06-29T02:12:24.153Z,100709.22
2023-06-29T02:14:51.355Z,100685.22
2023-06-29T02:17:23.891Z,100694.03
2023-06-29T02:19:55.637Z,100684.13
2023-06-29T02:22:24.158Z,100679.19
2023-06-29T02:24:52.424Z,100682.47
2023-06-29T02:27:25.081Z,100683.59
2023-06-29T02:29:54.624Z,100666.50
2023-06-29T02:32:30.822Z,100684.16
2023-06-29T02:35:04.529Z,100670.41
2023-06-29T02:37:35.116Z,100668.16
2023-06-29T02:40:04.104Z,100666.50
2023-06-29T02:42:38.112Z,100669.00
2023-06-29T02:45:09.896Z,100647.22
2023-06-29T02:47:37.749Z,100648.31
2023-06-29T02:50:09.624Z,100664.84
2023-06-29T02:52:41.883Z,100667.03
2023-06-29T02:55:09.202Z,100658.75
2023-06-29T02:57:40.973Z,100663.16
2023-06-29T03:00:15.621Z,100661.50
2023-06-29T03:02:42.519Z,100654.31
2023-06-29T03:05:10.072Z,100641.66
2023-06-29T03:07:48.638Z,100647.44
2023-06-29T03:10:17.497Z,100653.75
2023-06-29T03:12:44.444Z,100657.59
2023-06-29T03:15:12.084Z,100649.91
2023-06-29T03:17:39.177Z,100642.16
2023-06-29T03:20:07.781Z,100648.22
2023-06-29T03:22:36.592Z,100650.66
2023-06-29T03:25:06.189Z,100643.78
2023-06-29T03:27:33.492Z,100658.06
2023-06-29T03:30:01.233Z,100640.97
2023-06-29T03:32:27.902Z,100651.44
2023-06-29T03:34:59.056Z,100642.59
2023-06-29T03:37:27.418Z,100655.81
2023-06-29T03:39:54.280Z,100647.53
2023-06-29T03:42:22.127Z,100639.22
2023-06-29T03:44:53.010Z,100647.47
2023-06-29T03:47:23.270Z,100635.34
2023-06-29T03:49:51.584Z,100639.16
2023-06-29T03:52:18.328Z,100636.38
2023-06-29T03:54:45.298Z,100639.41
2023-06-29T03:57:14.916Z,100635.22
2023-06-29T03:59:41.544Z,100634.69
2023-06-29T04:02:09.889Z,100644.03
2023-06-29T04:04:41.908Z,100641.81
2023-06-29T04:07:10.588Z,100640.69
2023-06-29T04:09:38.563Z,100633.22
2023-06-29T04:12:11.385Z,100632.94
2023-06-29T04:14:38.017Z,100634.03
2023-06-29T04:17:06.533Z,100624.34
2023-06-29T04:19:34.131Z,100636.69
2023-06-29T04:22:06.354Z,100618.75
2023-06-29T04:24:33.440Z,100616.22
2023-06-29T04:27:01.544Z,100627.25
2023-06-29T04:29:33.487Z,100607.38
2023-06-29T04:32:01.450Z,100618.63
2023-06-29T04:34:29.616Z,100613.31
2023-06-29T04:36:57.975Z,100614.97
2023-06-29T04:39:29.298Z,100617.09
2023-06-29T04:42:03.057Z,100601.16
2023-06-29T04:44:40.218Z,100614.88
2023-06-29T04:47:09.009Z,100623.66
2023-06-29T04:49:54.102Z,100613.38
2023-06-29T04:52:22.812Z,100620.53
2023-06-29T04:54:50.436Z,100613.06
2023-06-29T05:00:20.852Z,100611.00
2023-06-29T05:02:55.427Z,100609.59
2023-06-29T05:05:26.489Z,100610.81
2023-06-29T05:07:55.288Z,100621.47
2023-06-29T05:10:25.525Z,100608.75
2023-06-29T05:12:54.287Z,100610.31
2023-06-29T05:15:22.872Z,100613.47
2023-06-29T05:17:53.142Z,100614.16
2023-06-29T05:20:20.948Z,100617.06
2023-06-29T05:22:48.804Z,100615.25
2023-06-29T05:25:18.111Z,100616.78
2023-06-29T05:27:55.560Z,100613.16
2023-06-29T05:30:29.513Z,100603.63
2023-06-29T05:32:56.465Z,100608.50
2023-06-29T05:35:24.472Z,100597.31
2023-06-29T05:37:53.996Z,100606.53
2023-06-29T05:40:23.297Z,100608.00
2023-06-29T05:42:50.075Z,100614.50
2023-06-29T05:45:24.814Z,100613.88
2023-06-29T05:47:55.904Z,100609.06
2023-06-29T05:50:23.090Z,100601.84
2023-06-29T05:52:51.304Z,100597.97
2023-06-29T05:55:29.483Z,100597.38
2023-06-29T05:57:56.094Z,100590.75
2023-06-29T06:00:29.014Z,100606.72
2023-06-29T06:02:58.290Z,100601.69
2023-06-29T06:07:53.919Z,100591.91
2023-06-29T06:10:22.276Z,100597.69
2023-06-29T06:12:53.640Z,100596.34
2023-06-29T06:15:20.301Z,100595.81
2023-06-29T06:17:53.042Z,100605.38
2023-06-29T06:20:21.039Z,100610.59
2023-06-29T06:22:47.655Z,100596.72
2023-06-29T06:25:16.584Z,100601.69
2023-06-29T06:27:43.282Z,100610.31
2023-06-29T06:30:10.344Z,100601.59
2023-06-29T06:32:41.387Z,100607.47
2023-06-29T06:35:13.540Z,100599.75
2023-06-29T06:37:42.104Z,100600.84
2023-06-29T06:40:09.941Z,100577.75
2023-06-29T06:42:40.042Z,100601.03
2023-06-29T06:45:08.874Z,100600.63
2023-06-29T06:47:39.345Z,100589.78
2023-06-29T06:50:06.970Z,100593.28
2023-06-29T06:52:36.043Z,100603.16
2023-06-29T06:55:03.310Z,100597.56
2023-06-29T06:57:29.972Z,100604.41
2023-06-29T06:59:58.089Z,100601.78
2023-06-29T07:02:26.625Z,100593.44
2023-06-29T07:04:54.609Z,100594.13
2023-06-29T07:07:23.863Z,100600.41
2023-06-29T07:09:50.518Z,100603.84
2023-06-29T07:12:17.480Z,100601.91
2023-06-29T07:14:45.207Z,100602.44
2023-06-29T07:17:12.248Z,100596.88
2023-06-29T07:24:40.258Z,100591.47
2023-06-29T07:27:12.403Z,100591.81
2023-06-29T07:29:44.192Z,100568.38
2023-06-29T07:32:10.840Z,100592.53
2023-06-29T07:34:37.530Z,100596.28
2023-06-29T07:37:04.850Z,100592.88
2023-06-29T07:39:32.016Z,100589.47
2023-06-29T07:42:00.038Z,100586.03
2023-06-29T07:44:26.745Z,100587.72
2023-06-29T07:46:54.545Z,100587.72
2023-06-29T07:49:23.068Z,100586.63
2023-06-29T07:51:50.333Z,100569.28
2023-06-29T07:54:18.235Z,100577.88
2023-06-29T07:59:14.894Z,100571.19
2023-06-29T08:01:43.220Z,100578.94
2023-06-29T08:04:10.529Z,100577.63
2023-06-29T08:06:50.834Z,100577.16
2023-06-29T08:09:18.555Z,100578.13
2023-06-29T08:11:45.368Z,100574.69
2023-06-29T08:14:12.029Z,100564.53
2023-06-29T08:16:38.806Z,100568.63
2023-06-29T08:19:09.657Z,100575.19
2023-06-29T08:21:36.380Z,100574.19
2023-06-29T08:24:04.615Z,100579.34
2023-06-29T08:26:33.575Z,100584.25
2023-06-29T08:29:01.603Z,100578.03
2023-06-29T08:31:28.496Z,100585.88
2023-06-29T08:33:55.262Z,100571.44
2023-06-29T08:36:21.991Z,100567.66
2023-06-29T08:38:50.224Z,100564.19
2023-06-29T08:41:17.842Z,100567.56
2023-06-29T08:43:48.675Z,100568.38
2023-06-29T08:46:15.443Z,100564.00
2023-06-29T08:48:45.893Z,100554.75
2023-06-29T08:51:15.259Z,100555.31
2023-06-29T08:53:43.082Z,100560.03
2023-06-29T08:56:13.667Z,100560.16
2023-06-29T08:58:41.104Z,100551.66
2023-06-29T09:01:08.601Z,100546.41
2023-06-29T09:03:37.483Z,100556.75
2023-06-29T09:06:05.007Z,100555.56
2023-06-29T09:08:31.862Z,100545.34
2023-06-29T09:10:59.254Z,100548.13
2023-06-29T09:13:28.938Z,100556.19
2023-06-29T09:15:55.974Z,100553.03
2023-06-29T09:18:29.728Z,100532.59
2023-06-29T09:20:57.630Z,100537.69
2023-06-29T09:23:27.220Z,100530.72
2023-06-29T09:25:57.245Z,100535.72
2023-06-29T09:28:24.122Z,100534.38
2023-06-29T09:30:51.468Z,100530.44
2023-06-29T09:33:18.292Z,100534.09
2023-06-29T09:35:47.018Z,100525.88
2023-06-29T09:38:20.565Z,100526.59
2023-06-29T09:40:52.592Z,100523.56
2023-06-29T09:43:27.667Z,100525.88
2023-06-29T09:46:08.240Z,100515.88
2023-06-29T09:51:24.369Z,100523.31
2023-06-29T09:53:53.174Z,100516.53
2023-06-29T09:56:27.876Z,100521.56
2023-06-29T09:58:57.712Z,100517.28
2023-06-29T10:01:30.140Z,100524.97
2023-06-29T10:03:56.995Z,100520.59
2023-06-29T10:06:35.046Z,100518.47
2023-06-29T10:09:14.356Z,100516.38
2023-06-29T10:11:45.696Z,100514.97
2023-06-29T10:14:16.293Z,100502.34
2023-06-29T10:16:51.312Z,100502.44
2023-06-29T10:19:21.965Z,100513.28
2023-06-29T10:21:54.203Z,100510.03
2023-06-29T10:24:27.120Z,100513.16
2023-06-29T10:26:55.406Z,100511.44
2023-06-29T10:29:24.286Z,100503.84
2023-06-29T10:32:01.385Z,100498.84
2023-06-29T10:34:28.338Z,100506.41
2023-06-29T10:37:01.048Z,100502.84
2023-06-29T10:39:42.876Z,100506.09
2023-06-29T10:42:13.685Z,100499.56
2023-06-29T10:44:40.778Z,100500.97
2023-06-29T10:47:07.536Z,100490.34
2023-06-29T10:49:34.641Z,100502.00
2023-06-29T10:52:05.848Z,100497.44
2023-06-29T10:54:32.722Z,100490.91
2023-06-29T10:57:06.857Z,100499.75
2023-06-29T10:59:35.800Z,100497.88
2023-06-29T11:02:04.544Z,100489.34
2023-06-29T11:04:33.253Z,100494.63
2023-06-29T11:07:08.724Z,100501.16
2023-06-29T11:09:35.905Z,100481.91
2023-06-29T11:12:03.041Z,100495.56
2023-06-29T11:14:29.950Z,100486.47
2023-06-29T11:16:57.013Z,100489.03
2023-06-29T11:19:30.137Z,100491.84
2023-06-29T11:21:58.198Z,100500.63
2023-06-29T11:24:24.892Z,100499.81
2023-06-29T11:26:52.173Z,100490.06
2023-06-29T11:29:19.170Z,100490.22
2023-06-29T11:31:46.177Z,100483.31
2023-06-29T11:34:14.140Z,100492.31
2023-06-29T11:36:40.855Z,100487.19
2023-06-29T11:39:13.288Z,100487.84
2023-06-29T11:41:42.082Z,100477.81
2023-06-29T11:44:12.464Z,100487.16
2023-06-29T11:46:44.531Z,100486.91
2023-06-29T11:49:11.615Z,100478.13
2023-06-29T11:51:40.505Z,100479.19
2023-06-29T11:54:09.015Z,100473.22
2023-06-29T11:56:37.476Z,100477.28
2023-06-29T11:59:13.597Z,100471.00
2023-06-29T12:01:40.804Z,100466.56
2023-06-29T12:04:08.901Z,100473.53
2023-06-29T12:06:36.092Z,100471.00
2023-06-29T12:09:12.956Z,100470.31
2023-06-29T12:11:40.986Z,100466.47
2023-06-29T12:14:11.177Z,100467.78
2023-06-29T12:19:15.215Z,100464.50
2023-06-29T12:21:43.038Z,100471.75
2023-06-29T12:24:10.165Z,100462.06
2023-06-29T12:26:38.686Z,100462.28
2023-06-29T12:29:06.100Z,100455.03
2023-06-29T12:31:32.719Z,100474.31
2023-06-29T12:33:59.949Z,100459.13
2023-06-29T12:36:27.394Z,100452.69
2023-06-29T12:38:55.443Z,100462.84
2023-06-29T12:41:22.146Z,100459.34
2023-06-29T12:43:49.430Z,100456.78
2023-06-29T12:46:16.083Z,100453.41
2023-06-29T12:48:45.130Z,100448.59
2023-06-29T12:51:11.870Z,100446.28
2023-06-29T12:53:42.556Z,100452.78
2023-06-29T12:56:12.479Z,100439.97
2023-06-29T12:58:39.215Z,100446.03
2023-06-29T13:01:08.619Z,100441.34
2023-06-29T13:03:35.416Z,100446.84
2023-06-29T13:06:02.113Z,100452.47
2023-06-29T13:08:31.025Z,100450.13
2023-06-29T13:10:57.801Z,100454.22
2023-06-29T13:13:24.719Z,100451.41
2023-06-29T13:15:52.815Z,100440.69
2023-06-29T13:18:20.561Z,100447.34
2023-06-29T13:20:47.197Z,100443.97
2023-06-29T13:23:13.877Z,100439.63
2023-06-29T13:25:41.064Z,100443.28
2023-06-29T13:28:07.708Z,100445.38
2023-06-29T13:30:34.445Z,100445.84
2023-06-29T13:33:01.143Z,100436.97
2023-06-29T13:35:28.037Z,100445.63
2023-06-29T13:37:54.633Z,100444.66
2023-06-29T13:40:21.256Z,100447.03
2023-06-29T13:42:48.246Z,100448.63
2023-06-29T13:45:14.840Z,100441.41
2023-06-29T13:47:43.262Z,100442.22
2023-06-29T13:50:14.272Z,100441.06
2023-06-29T13:52:48.562Z,100445.94
2023-06-29T13:58:37.169Z,100439.91
2023-06-29T14:01:18.154Z,100447.94
2023-06-29T14:03:52.203Z,100445.38
2023-06-29T14:06:22.120Z,100440.94
2023-06-29T14:12:06.408Z,100443.38
2023-06-29T14:14:42.024Z,100447.25
2023-06-29T14:17:20.670Z,100447.03
2023-06-29T14:19:58.808Z,100449.81
2023-06-29T14:22:29.358Z,100454.94
2023-06-29T14:25:01.280Z,100450.25
2023-06-29T14:27:30.375Z,100450.75
2023-06-29T14:30:00.945Z,100454.09
2023-06-29T14:32:30.935Z,100447.47
2023-06-29T14:35:01.153Z,100444.19
2023-06-29T14:37:38.209Z,100442.09
2023-06-29T14:40:08.305Z,100449.91
2023-06-29T14:42:35.221Z,100436.00
2023-06-29T14:45:02.330Z,100440.22
2023-06-29T14:47:30.485Z,100435.38
2023-06-29T14:49:57.356Z,100439.59
2023-06-29T14:52:25.326Z,100432.38
2023-06-29T14:54:52.054Z,100443.00
2023-06-29T14:57:18.798Z,100440.69
2023-06-29T14:59:45.434Z,100439.78
2023-06-29T15:02:12.063Z,100435.81
2023-06-29T15:04:38.625Z,100438.16
2023-06-29T15:07:05.444Z,100438.38
2023-06-29T15:09:32.240Z,100432.78
2023-06-29T15:11:59.024Z,100431.03
2023-06-29T15:14:26.878Z,100429.50
2023-06-29T15:16:53.582Z,100432.78
2023-06-29T15:19:20.303Z,100423.25
2023-06-29T15:21:47.191Z,100422.06
2023-06-29T15:24:14.146Z,100422.59
2023-06-29T15:26:42.341Z,100416.88
2023-06-29T15:29:08.956Z,100417.47
2023-06-29T15:31:35.885Z,100417.47
2023-06-29T15:34:03.358Z,100416.50
2023-06-29T15:36:30.021Z,100411.84
2023-06-29T15:38:56.635Z,100425.81
2023-06-29T15:41:23.387Z,100421.13
2023-06-29T15:43:50.039Z,100410.47
2023-06-29T15:46:17.860Z,100409.84
2023-06-29T15:48:44.691Z,100413.66
2023-06-29T15:51:11.907Z,100409.59
2023-06-29T15:53:38.733Z,100400.94
2023-06-29T15:56:05.338Z,100410.13
2023-06-29T15:58:31.967Z,100398.63
2023-06-29T16:00:58.564Z,100396.19
2023-06-29T16:03:25.358Z,100392.09
2023-06-29T16:05:52.087Z,100395.94
2023-06-29T16:08:18.974Z,100387.59
2023-06-29T16:11:00.284Z,100400.69
2023-06-29T16:13:26.912Z,100393.44
2023-06-29T16:15:53.682Z,100396.97
2023-06-29T16:18:26.295Z,100395.13
2023-06-29T16:20:53.032Z,100389.53
2023-06-29T16:23:19.628Z,100387.63
2023-06-29T16:25:46.485Z,100386.59
2023-06-29T16:28:13.374Z,100375.28
2023-06-29T16:30:40.238Z,100381.81
2023-06-29T16:33:06.977Z,100382.78
2023-06-29T16:35:33.590Z,100374.63
2023-06-29T16:38:02.584Z,100374.16
2023-06-29T16:40:29.254Z,100370.66
2023-06-29T16:42:55.882Z,100373.47
2023-06-29T16:45:22.655Z,100360.84
2023-06-29T16:47:49.840Z,100364.34
2023-06-29T16:50:16.479Z,100359.44
2023-06-29T16:52:43.103Z,100361.41
2023-06-29T16:55:09.914Z,100361.53
2023-06-29T16:57:36.616Z,100358.25
2023-06-29T17:00:04.020Z,100367.13
2023-06-29T17:02:30.642Z,100358.38
2023-06-29T17:04:57.345Z,100374.59
2023-06-29T17:07:27.079Z,100365.03
2023-06-29T17:09:53.686Z,100370.41
2023-06-29T17:12:20.460Z,100373.47
2023-06-29T17:14:47.315Z,100365.53
2023-06-29T17:17:14.065Z,100367.16
2023-06-29T17:19:41.001Z,100360.88
2023-06-29T17:22:11.481Z,100374.03
2023-06-29T17:24:39.025Z,100365.53
2023-06-29T17:27:06.380Z,100372.41
2023-06-29T17:29:33.069Z,100363.88
2023-06-29T17:32:01.091Z,100359.00
2023-06-29T17:34:27.773Z,100371.13
2023-06-29T17:36:54.414Z,100367.50
2023-06-29T17:39:22.866Z,100361.91
2023-06-29T17:41:49.450Z,100363.75
2023-06-29T17:44:16.396Z,100356.88
2023-06-29T17:46:43.203Z,100359.69
2023-06-29T17:49:09.946Z,100350.22
2023-06-29T17:51:36.608Z,100356.19
2023-06-29T17:54:04.884Z,100354.28
2023-06-29T17:56:31.568Z,100359.63
2023-06-29T17:58:58.354Z,100369.63
2023-06-29T18:01:25.088Z,100358.78
2023-06-29T18:03:52.039Z,100366.56
2023-06-29T18:06:19.603Z,100356.25
2023-06-29T18:08:46.726Z,100366.16
2023-06-29T18:11:13.608Z,100360.78
2023-06-29T18:13:40.266Z,100352.25
2023-06-29T18:16:06.969Z,100362.69
2023-06-29T18:18:35.135Z,100352.88
2023-06-29T18:21:02.798Z,100356.69
2023-06-29T18:23:29.518Z,100358.41
2023-06-29T18:25:56.247Z,100360.72
2023-06-29T18:28:22.908Z,100358.63
2023-06-29T18:30:49.610Z,100352.75
2023-06-29T18:33:17.247Z,100360.66
2023-06-29T18:35:44.397Z,100356.44
2023-06-29T18:38:11.571Z,100352.69
2023-06-29T18:40:38.185Z,100352.06
2023-06-29T18:43:04.867Z,100353.53
2023-06-29T18:45:31.940Z,100357.34
2023-06-29T18:47:58.773Z,100340.16
2023-06-29T18:50:25.533Z,100346.44
2023-06-29T18:52:52.607Z,100343.81
2023-06-29T18:55:19.301Z,100348.78
2023-06-29T18:57:45.968Z,100345.84
2023-06-29T19:00:13.065Z,100347.66
2023-06-29T19:02:43.576Z,100349.00
2023-06-29T19:05:11.378Z,100350.84
2023-06-29T19:07:38.369Z,100356.28
2023-06-29T19:10:05.492Z,100354.47
2023-06-29T19:12:32.166Z,100351.41
2023-06-29T19:14:59.014Z,100357.31
2023-06-29T19:17:25.878Z,100349.94
2023-06-29T19:19:52.615Z,100353.41
2023-06-29T19:22:19.239Z,100354.72
2023-06-29T19:24:45.886Z,100353.41
2023-06-29T19:27:12.479Z,100361.13
2023-06-29T19:29:39.155Z,100372.28
2023-06-29T19:32:06.937Z,100365.56
2023-06-29T19:34:34.576Z,100372.63
2023-06-29T19:37:03.654Z,100367.91
2023-06-29T19:39:32.017Z,100376.28
2023-06-29T19:41:58.795Z,100367.25
2023-06-29T19:44:25.535Z,100380.38
2023-06-29T19:46:52.332Z,100354.69
2023-06-29T19:49:20.107Z,100363.69
2023-06-29T19:51:46.842Z,100361.72
2023-06-29T19:54:13.692Z,100374.31
2023-06-29T19:56:40.694Z,100366.81
2023-06-29T19:59:07.805Z,100363.03
2023-06-29T20:01:34.755Z,100380.25
2023-06-29T20:04:01.745Z,100367.81
2023-06-29T20:06:29.265Z,100376.00
2023-06-29T20:08:56.175Z,100385.66
2023-06-29T20:11:24.056Z,100368.94
2023-06-29T20:13:51.406Z,100361.88
2023-06-29T20:16:18.227Z,100367.63
2023-06-29T20:18:44.982Z,100367.63
2023-06-29T20:21:12.985Z,100354.00
2023-06-29T20:23:39.683Z,100374.63
2023-06-29T20:26:06.484Z,100391.66
2023-06-29T20:28:33.160Z,100392.97
2023-06-29T20:31:00.139Z,100361.84
2023-06-29T20:33:26.908Z,100369.84
2023-06-29T20:35:53.653Z,100370.81
2023-06-29T20:38:20.341Z,100388.38
2023-06-29T20:40:47.148Z,100371.81
2023-06-29T20:43:14.619Z,100394.59
2023-06-29T20:45:59.734Z,100393.59
2023-06-29T20:48:26.503Z,100393.59
2023-06-29T20:51:03.727Z,100397.00
2023-06-29T20:53:36.274Z,100405.34
2023-06-29T20:56:03.613Z,100416.19
2023-06-29T20:58:30.323Z,100398.78
2023-06-29T21:00:58.117Z,100407.63
2023-06-29T21:03:25.984Z,100414.19
2023-06-29T21:05:53.304Z,100397.75
2023-06-29T21:08:20.319Z,100397.28
2023-06-29T21:10:47.200Z,100402.84
2023-06-29T21:13:14.144Z,100405.13
2023-06-29T21:15:40.915Z,100394.78
2023-06-29T21:18:08.237Z,100401.47
2023-06-29T21:20:35.971Z,100402.47
2023-06-29T21:23:02.779Z,100393.00
2023-06-29T21:25:29.615Z,100411.00
2023-06-29T21:27:57.017Z,100417.03
2023-06-29T21:30:26.180Z,100420.16
2023-06-29T21:32:53.164Z,100424.00
2023-06-29T21:35:20.541Z,100419.56
2023-06-29T21:37:47.547Z,100425.13
2023-06-29T21:40:14.308Z,100397.25
2023-06-29T21:42:41.038Z,100390.66
2023-06-29T21:45:08.156Z,100392.31
2023-06-29T21:47:34.907Z,100395.09
2023-06-29T21:50:01.621Z,100403.63
2023-06-29T21:52:28.334Z,100414.56
2023-06-29T21:54:55.011Z,100407.34
2023-06-29T21:57:21.842Z,100407.63
2023-06-29T21:59:48.526Z,100401.69
2023-06-29T22:02:15.310Z,100389.59
2023-06-29T22:04:42.342Z,100412.81
2023-06-29T22:07:16.376Z,100411.16
2023-06-29T22:09:44.067Z,100411.94
2023-06-29T22:12:12.892Z,100417.00
2023-06-29T22:14:40.039Z,100398.50
2023-06-29T22:17:08.488Z,100418.66
2023-06-29T22:19:38.185Z,100401.41
2023-06-29T22:22:05.423Z,100417.63
2023-06-29T22:24:32.068Z,100413.97
2023-06-29T22:26:58.763Z,100409.97
2023-06-29T22:29:25.429Z,100406.63
2023-06-29T22:31:52.264Z,100404.13
2023-06-29T22:34:20.881Z,100393.69
2023-06-29T22:36:50.800Z,100392.44
2023-06-29T22:39:17.717Z,100397.81
2023-06-29T22:41:44.372Z,100396.75
2023-06-29T22:44:10.985Z,100392.13
2023-06-29T22:46:37.767Z,100390.28
2023-06-29T22:49:04.411Z,100391.13
2023-06-29T22:51:31.125Z,100393.69
2023-06-29T22:53:59.101Z,100395.22
2023-06-29T22:56:26.052Z,100408.19
2023-06-29T22:59:13.218Z,100394.53
2023-06-29T23:01:41.397Z,100406.00
2023-06-29T23:04:09.374Z,100414.34
2023-06-29T23:06:42.362Z,100406.97
2023-06-29T23:09:10.202Z,100410.56
2023-06-29T23:11:38.230Z,100408.63
2023-06-29T23:14:06.178Z,100411.69
2023-06-29T23:16:33.646Z,100399.78
2023-06-29T23:19:01.454Z,100406.97
2023-06-29T23:21:28.540Z,100406.38
2023-06-29T23:23:56.260Z,100398.44
2023-06-29T23:26:23.686Z,100409.25
2023-06-29T23:28:52.028Z,100412.63
2023-06-29T23:31:19.612Z,100406.16
2023-06-29T23:33:49.868Z,100412.13
2023-06-29T23:36:22.663Z,100395.84
2023-06-29T23:38:50.599Z,100402.63
2023-06-29T23:41:20.163Z,100401.84
2023-06-29T23:43:47.644Z,100398.53
2023-06-29T23:46:14.871Z,100406.03
2023-06-29T23:48:41.951Z,100391.75
2023-06-29T23:51:12.586Z,100401.72
2023-06-29T23:53:39.452Z,100397.31
2023-06-29T23:56:06.185Z,100388.03
2023-06-29T23:58:33.425Z,100390.31
